sensor_id;sensor_type;location;lat;lon;timestamp;temperature;humidity
11047;DHT22;5576;50.008;10.596;2023-05-29T00:01:45;12.70;99.90
11047;DHT22;5576;50.008;10.596;2023-05-29T00:04:11;14.40;99.90
11047;DHT22;5576;50.008;10.596;2023-05-29T00:06:38;15.60;99.90
11047;DHT22;5576;50.008;10.596;2023-05-29T00:09:03;13.90;99.90
11047;DHT22;5576;50.008;10.596;2023-05-29T00:11:30;12.70;99.90
11047;DHT22;5576;50.008;10.596;2023-05-29T00:13:56;13.50;99.90
11047;DHT22;5576;50.008;10.596;2023-05-29T00:16:23;13.40;99.90
11047;DHT22;5576;50.008;10.596;2023-05-29T00:18:49;13.40;99.90
11047;DHT22;5576;50.008;10.596;2023-05-29T00:21:17;14.60;99.90
11047;DHT22;5576;50.008;10.596;2023-05-29T00:23:43;16.20;99.90
11047;DHT22;5576;50.008;10.596;2023-05-29T00:26:09;13.50;99.90
11047;DHT22;5576;50.008;10.596;2023-05-29T00:28:37;13.50;99.90
11047;DHT22;5576;50.008;10.596;2023-05-29T00:31:03;13.30;99.90
11047;DHT22;5576;50.008;10.596;2023-05-29T00:33:29;13.20;99.90
11047;DHT22;5576;50.008;10.596;2023-05-29T00:35:54;13.20;99.90
11047;DHT22;5576;50.008;10.596;2023-05-29T00:38:20;13.30;99.90
11047;DHT22;5576;50.008;10.596;2023-05-29T00:40:46;13.30;99.90
11047;DHT22;5576;50.008;10.596;2023-05-29T00:43:12;13.20;99.90
11047;DHT22;5576;50.008;10.596;2023-05-29T00:45:38;10.60;99.90
11047;DHT22;5576;50.008;10.596;2023-05-29T00:48:04;12.70;99.90
11047;DHT22;5576;50.008;10.596;2023-05-29T00:50:30;13.90;99.90
11047;DHT22;5576;50.008;10.596;2023-05-29T00:52:58;9.60;99.90
11047;DHT22;5576;50.008;10.596;2023-05-29T00:55:24;9.60;99.90
11047;DHT22;5576;50.008;10.596;2023-05-29T00:57:50;9.00;99.90
11047;DHT22;5576;50.008;10.596;2023-05-29T01:00:16;14.20;99.90
11047;DHT22;5576;50.008;10.596;2023-05-29T01:02:44;12.40;99.90
11047;DHT22;5576;50.008;10.596;2023-05-29T01:05:12;12.60;99.90
11047;DHT22;5576;50.008;10.596;2023-05-29T01:07:39;12.70;99.90
11047;DHT22;5576;50.008;10.596;2023-05-29T01:10:06;12.80;99.90
11047;DHT22;5576;50.008;10.596;2023-05-29T01:12:43;12.80;99.90
11047;DHT22;5576;50.008;10.596;2023-05-29T01:20:57;12.60;99.90
11047;DHT22;5576;50.008;10.596;2023-05-29T01:26:49;12.50;99.90
11047;DHT22;5576;50.008;10.596;2023-05-29T01:29:19;12.60;99.90
11047;DHT22;5576;50.008;10.596;2023-05-29T01:31:50;12.70;99.90
11047;DHT22;5576;50.008;10.596;2023-05-29T01:34:16;12.80;99.90
11047;DHT22;5576;50.008;10.596;2023-05-29T01:36:43;12.60;99.90
11047;DHT22;5576;50.008;10.596;2023-05-29T01:39:09;12.40;99.90
11047;DHT22;5576;50.008;10.596;2023-05-29T01:41:35;12.30;99.90
11047;DHT22;5576;50.008;10.596;2023-05-29T01:44:04;12.40;99.90
11047;DHT22;5576;50.008;10.596;2023-05-29T01:46:30;12.20;99.90
11047;DHT22;5576;50.008;10.596;2023-05-29T01:48:56;12.10;99.90
11047;DHT22;5576;50.008;10.596;2023-05-29T01:51:22;12.00;99.90
11047;DHT22;5576;50.008;10.596;2023-05-29T01:53:48;12.00;99.90
11047;DHT22;5576;50.008;10.596;2023-05-29T01:56:14;11.90;99.90
11047;DHT22;5576;50.008;10.596;2023-05-29T01:58:41;11.80;99.90
11047;DHT22;5576;50.008;10.596;2023-05-29T02:01:07;11.80;99.90
11047;DHT22;5576;50.008;10.596;2023-05-29T02:03:33;11.70;99.90
11047;DHT22;5576;50.008;10.596;2023-05-29T02:06:00;11.60;99.90
11047;DHT22;5576;50.008;10.596;2023-05-29T02:08:26;11.70;99.90
11047;DHT22;5576;50.008;10.596;2023-05-29T02:10:52;11.60;99.90
11047;DHT22;5576;50.008;10.596;2023-05-29T02:13:18;11.60;99.90
11047;DHT22;5576;50.008;10.596;2023-05-29T02:15:44;11.60;99.90
11047;DHT22;5576;50.008;10.596;2023-05-29T02:18:13;11.60;99.90
11047;DHT22;5576;50.008;10.596;2023-05-29T02:20:39;11.50;99.90
11047;DHT22;5576;50.008;10.596;2023-05-29T02:23:04;11.60;99.90
11047;DHT22;5576;50.008;10.596;2023-05-29T02:25:30;11.70;99.90
11047;DHT22;5576;50.008;10.596;2023-05-29T02:27:56;11.80;99.90
11047;DHT22;5576;50.008;10.596;2023-05-29T02:30:22;11.90;99.90
11047;DHT22;5576;50.008;10.596;2023-05-29T02:32:47;12.00;99.90
11047;DHT22;5576;50.008;10.596;2023-05-29T02:35:13;11.90;99.90
11047;DHT22;5576;50.008;10.596;2023-05-29T02:37:41;11.90;99.90
11047;DHT22;5576;50.008;10.596;2023-05-29T02:40:07;9.50;99.90
11047;DHT22;5576;50.008;10.596;2023-05-29T02:42:37;11.90;99.90
11047;DHT22;5576;50.008;10.596;2023-05-29T02:45:04;11.80;99.90
11047;DHT22;5576;50.008;10.596;2023-05-29T02:47:29;11.80;99.90
11047;DHT22;5576;50.008;10.596;2023-05-29T02:49:56;11.90;99.90
11047;DHT22;5576;50.008;10.596;2023-05-29T02:52:23;11.90;99.90
11047;DHT22;5576;50.008;10.596;2023-05-29T02:54:49;11.80;99.90
11047;DHT22;5576;50.008;10.596;2023-05-29T02:57:15;11.70;99.90
11047;DHT22;5576;50.008;10.596;2023-05-29T02:59:41;11.60;99.90
11047;DHT22;5576;50.008;10.596;2023-05-29T03:02:07;11.60;99.90
11047;DHT22;5576;50.008;10.596;2023-05-29T03:06:59;11.70;99.90
11047;DHT22;5576;50.008;10.596;2023-05-29T03:09:25;11.60;99.90
11047;DHT22;5576;50.008;10.596;2023-05-29T03:11:51;11.60;99.90
11047;DHT22;5576;50.008;10.596;2023-05-29T03:14:17;14.20;99.90
11047;DHT22;5576;50.008;10.596;2023-05-29T03:16:44;11.60;99.90
11047;DHT22;5576;50.008;10.596;2023-05-29T03:19:11;7.50;99.90
11047;DHT22;5576;50.008;10.596;2023-05-29T03:21:37;11.40;99.90
11047;DHT22;5576;50.008;10.596;2023-05-29T03:24:02;11.30;99.90
11047;DHT22;5576;50.008;10.596;2023-05-29T03:26:30;11.30;99.90
11047;DHT22;5576;50.008;10.596;2023-05-29T03:28:55;11.30;99.90
11047;DHT22;5576;50.008;10.596;2023-05-29T03:31:21;11.30;99.90
11047;DHT22;5576;50.008;10.596;2023-05-29T03:33:48;11.30;99.90
11047;DHT22;5576;50.008;10.596;2023-05-29T03:36:21;11.30;99.90
11047;DHT22;5576;50.008;10.596;2023-05-29T03:38:47;11.30;99.90
11047;DHT22;5576;50.008;10.596;2023-05-29T03:41:13;11.30;99.90
11047;DHT22;5576;50.008;10.596;2023-05-29T03:43:39;11.40;99.90
11047;DHT22;5576;50.008;10.596;2023-05-29T03:46:05;11.40;99.90
11047;DHT22;5576;50.008;10.596;2023-05-29T03:48:33;11.40;99.90
11047;DHT22;5576;50.008;10.596;2023-05-29T03:50:59;11.30;99.90
11047;DHT22;5576;50.008;10.596;2023-05-29T03:53:30;11.20;99.90
11047;DHT22;5576;50.008;10.596;2023-05-29T03:55:57;11.20;99.90
11047;DHT22;5576;50.008;10.596;2023-05-29T03:58:22;9.50;99.90
11047;DHT22;5576;50.008;10.596;2023-05-29T04:00:48;11.20;99.90
11047;DHT22;5576;50.008;10.596;2023-05-29T04:03:17;11.10;99.90
11047;DHT22;5576;50.008;10.596;2023-05-29T04:05:45;11.10;99.90
11047;DHT22;5576;50.008;10.596;2023-05-29T04:08:11;11.20;99.90
11047;DHT22;5576;50.008;10.596;2023-05-29T04:10:39;11.10;99.90
11047;DHT22;5576;50.008;10.596;2023-05-29T04:13:05;11.20;99.90
11047;DHT22;5576;50.008;10.596;2023-05-29T04:15:31;11.20;99.90
11047;DHT22;5576;50.008;10.596;2023-05-29T04:17:59;11.00;99.90
11047;DHT22;5576;50.008;10.596;2023-05-29T04:20:25;11.00;99.90
11047;DHT22;5576;50.008;10.596;2023-05-29T04:22:51;10.90;99.90
11047;DHT22;5576;50.008;10.596;2023-05-29T04:25:17;10.90;99.90
11047;DHT22;5576;50.008;10.596;2023-05-29T04:27:44;10.90;99.90
11047;DHT22;5576;50.008;10.596;2023-05-29T04:30:15;10.90;99.90
11047;DHT22;5576;50.008;10.596;2023-05-29T04:32:44;10.90;99.90
11047;DHT22;5576;50.008;10.596;2023-05-29T04:35:11;10.90;99.90
11047;DHT22;5576;50.008;10.596;2023-05-29T04:37:43;10.90;99.90
11047;DHT22;5576;50.008;10.596;2023-05-29T04:40:10;8.30;99.90
11047;DHT22;5576;50.008;10.596;2023-05-29T04:42:36;13.50;99.90
11047;DHT22;5576;50.008;10.596;2023-05-29T04:45:02;11.30;99.90
11047;DHT22;5576;50.008;10.596;2023-05-29T04:47:33;14.60;99.90
11047;DHT22;5576;50.008;10.596;2023-05-29T04:49:59;11.40;99.90
11047;DHT22;5576;50.008;10.596;2023-05-29T04:52:26;11.50;99.90
11047;DHT22;5576;50.008;10.596;2023-05-29T04:54:53;11.50;99.90
11047;DHT22;5576;50.008;10.596;2023-05-29T04:57:19;11.60;99.90
11047;DHT22;5576;50.008;10.596;2023-05-29T04:59:45;11.70;99.90
11047;DHT22;5576;50.008;10.596;2023-05-29T05:02:11;11.70;99.90
11047;DHT22;5576;50.008;10.596;2023-05-29T05:04:37;11.80;99.90
11047;DHT22;5576;50.008;10.596;2023-05-29T05:07:05;11.80;99.90
11047;DHT22;5576;50.008;10.596;2023-05-29T05:09:31;11.80;99.90
11047;DHT22;5576;50.008;10.596;2023-05-29T05:11:57;12.00;99.90
11047;DHT22;5576;50.008;10.596;2023-05-29T05:14:23;12.10;99.90
11047;DHT22;5576;50.008;10.596;2023-05-29T05:16:49;12.10;99.90
11047;DHT22;5576;50.008;10.596;2023-05-29T05:19:16;12.10;99.90
11047;DHT22;5576;50.008;10.596;2023-05-29T05:21:43;12.20;99.90
11047;DHT22;5576;50.008;10.596;2023-05-29T05:24:09;12.30;99.90
11047;DHT22;5576;50.008;10.596;2023-05-29T05:26:38;12.30;99.90
11047;DHT22;5576;50.008;10.596;2023-05-29T05:29:05;12.30;99.90
11047;DHT22;5576;50.008;10.596;2023-05-29T05:31:33;12.30;99.90
11047;DHT22;5576;50.008;10.596;2023-05-29T05:33:58;12.40;99.90
11047;DHT22;5576;50.008;10.596;2023-05-29T05:36:24;12.30;99.90
11047;DHT22;5576;50.008;10.596;2023-05-29T05:38:56;12.40;99.90
11047;DHT22;5576;50.008;10.596;2023-05-29T05:41:22;12.50;99.90
11047;DHT22;5576;50.008;10.596;2023-05-29T05:43:51;11.40;99.90
11047;DHT22;5576;50.008;10.596;2023-05-29T05:46:24;12.70;99.90
11047;DHT22;5576;50.008;10.596;2023-05-29T05:48:50;12.70;99.90
11047;DHT22;5576;50.008;10.596;2023-05-29T05:51:17;12.80;99.90
11047;DHT22;5576;50.008;10.596;2023-05-29T05:53:43;13.00;99.90
11047;DHT22;5576;50.008;10.596;2023-05-29T05:56:09;13.10;99.90
11047;DHT22;5576;50.008;10.596;2023-05-29T05:58:35;13.10;99.90
11047;DHT22;5576;50.008;10.596;2023-05-29T06:01:01;13.20;99.90
11047;DHT22;5576;50.008;10.596;2023-05-29T06:03:28;13.10;99.90
11047;DHT22;5576;50.008;10.596;2023-05-29T06:06:00;13.30;99.90
11047;DHT22;5576;50.008;10.596;2023-05-29T06:08:26;13.30;99.90
11047;DHT22;5576;50.008;10.596;2023-05-29T06:10:52;10.40;99.90
11047;DHT22;5576;50.008;10.596;2023-05-29T06:13:18;15.50;99.90
11047;DHT22;5576;50.008;10.596;2023-05-29T06:15:49;13.60;99.90
11047;DHT22;5576;50.008;10.596;2023-05-29T06:18:15;13.80;99.90
11047;DHT22;5576;50.008;10.596;2023-05-29T06:20:42;13.80;99.90
11047;DHT22;5576;50.008;10.596;2023-05-29T06:23:08;13.90;99.90
11047;DHT22;5576;50.008;10.596;2023-05-29T06:25:35;14.10;99.90
11047;DHT22;5576;50.008;10.596;2023-05-29T06:28:01;14.10;99.90
11047;DHT22;5576;50.008;10.596;2023-05-29T06:30:28;14.30;99.90
11047;DHT22;5576;50.008;10.596;2023-05-29T06:32:54;14.40;99.90
11047;DHT22;5576;50.008;10.596;2023-05-29T06:35:26;14.60;99.90
11047;DHT22;5576;50.008;10.596;2023-05-29T06:40:17;14.60;99.90
11047;DHT22;5576;50.008;10.596;2023-05-29T06:42:44;14.70;99.90
11047;DHT22;5576;50.008;10.596;2023-05-29T06:45:14;14.80;99.90
11047;DHT22;5576;50.008;10.596;2023-05-29T06:47:40;14.90;99.90
11047;DHT22;5576;50.008;10.596;2023-05-29T06:50:07;14.90;99.90
11047;DHT22;5576;50.008;10.596;2023-05-29T06:52:33;15.00;99.90
11047;DHT22;5576;50.008;10.596;2023-05-29T06:55:19;15.10;99.90
11047;DHT22;5576;50.008;10.596;2023-05-29T06:57:45;18.20;99.90
11047;DHT22;5576;50.008;10.596;2023-05-29T07:00:11;15.20;99.90
11047;DHT22;5576;50.008;10.596;2023-05-29T07:02:43;15.30;99.90
11047;DHT22;5576;50.008;10.596;2023-05-29T07:05:08;15.50;99.90
11047;DHT22;5576;50.008;10.596;2023-05-29T07:07:36;15.50;99.90
11047;DHT22;5576;50.008;10.596;2023-05-29T07:10:02;15.60;99.90
11047;DHT22;5576;50.008;10.596;2023-05-29T07:12:28;15.80;99.90
11047;DHT22;5576;50.008;10.596;2023-05-29T07:14:54;13.60;99.90
11047;DHT22;5576;50.008;10.596;2023-05-29T07:17:19;15.90;99.90
11047;DHT22;5576;50.008;10.596;2023-05-29T07:19:57;18.90;99.90
11047;DHT22;5576;50.008;10.596;2023-05-29T07:22:23;16.30;99.90
11047;DHT22;5576;50.008;10.596;2023-05-29T07:24:50;16.10;99.90
11047;DHT22;5576;50.008;10.596;2023-05-29T07:27:15;16.20;99.90
11047;DHT22;5576;50.008;10.596;2023-05-29T07:29:41;16.40;99.90
11047;DHT22;5576;50.008;10.596;2023-05-29T07:32:08;16.50;99.90
11047;DHT22;5576;50.008;10.596;2023-05-29T07:34:36;16.50;99.90
11047;DHT22;5576;50.008;10.596;2023-05-29T07:37:04;16.80;99.90
11047;DHT22;5576;50.008;10.596;2023-05-29T07:39:32;16.90;99.90
11047;DHT22;5576;50.008;10.596;2023-05-29T07:42:02;15.30;99.90
11047;DHT22;5576;50.008;10.596;2023-05-29T07:44:28;14.90;99.90
11047;DHT22;5576;50.008;10.596;2023-05-29T07:46:55;21.60;99.90
11047;DHT22;5576;50.008;10.596;2023-05-29T07:49:30;17.60;99.90
11047;DHT22;5576;50.008;10.596;2023-05-29T07:51:56;17.80;99.90
11047;DHT22;5576;50.008;10.596;2023-05-29T07:54:23;19.30;99.90
11047;DHT22;5576;50.008;10.596;2023-05-29T07:56:49;17.90;99.90
11047;DHT22;5576;50.008;10.596;2023-05-29T07:59:16;21.40;99.90
11047;DHT22;5576;50.008;10.596;2023-05-29T08:01:42;17.80;99.90
11047;DHT22;5576;50.008;10.596;2023-05-29T08:04:24;18.20;99.90
11047;DHT22;5576;50.008;10.596;2023-05-29T08:06:51;18.40;99.90
11047;DHT22;5576;50.008;10.596;2023-05-29T08:09:17;19.40;99.90
11047;DHT22;5576;50.008;10.596;2023-05-29T08:11:43;16.20;99.90
11047;DHT22;5576;50.008;10.596;2023-05-29T08:14:12;18.80;99.90
11047;DHT22;5576;50.008;10.596;2023-05-29T08:16:39;22.80;99.90
11047;DHT22;5576;50.008;10.596;2023-05-29T08:19:05;19.30;99.90
11047;DHT22;5576;50.008;10.596;2023-05-29T08:21:31;16.70;99.90
11047;DHT22;5576;50.008;10.596;2023-05-29T08:23:58;22.50;99.90
11047;DHT22;5576;50.008;10.596;2023-05-29T08:26:23;19.60;99.90
11047;DHT22;5576;50.008;10.596;2023-05-29T08:28:49;19.70;99.90
11047;DHT22;5576;50.008;10.596;2023-05-29T08:31:15;19.80;99.90
11047;DHT22;5576;50.008;10.596;2023-05-29T08:33:41;15.70;99.90
11047;DHT22;5576;50.008;10.596;2023-05-29T08:36:07;20.00;99.90
11047;DHT22;5576;50.008;10.596;2023-05-29T08:38:34;20.10;99.90
11047;DHT22;5576;50.008;10.596;2023-05-29T08:41:00;20.20;99.90
11047;DHT22;5576;50.008;10.596;2023-05-29T08:43:30;18.40;99.90
11047;DHT22;5576;50.008;10.596;2023-05-29T08:45:59;20.70;99.90
11047;DHT22;5576;50.008;10.596;2023-05-29T08:48:27;20.80;99.90
11047;DHT22;5576;50.008;10.596;2023-05-29T08:50:54;20.90;99.90
11047;DHT22;5576;50.008;10.596;2023-05-29T08:53:21;21.10;99.90
11047;DHT22;5576;50.008;10.596;2023-05-29T08:55:48;21.20;99.90
11047;DHT22;5576;50.008;10.596;2023-05-29T08:58:16;21.20;99.90
11047;DHT22;5576;50.008;10.596;2023-05-29T09:00:45;21.10;99.90
11047;DHT22;5576;50.008;10.596;2023-05-29T09:03:11;21.10;99.90
11047;DHT22;5576;50.008;10.596;2023-05-29T09:05:39;24.20;99.90
11047;DHT22;5576;50.008;10.596;2023-05-29T09:08:06;21.70;99.90
11047;DHT22;5576;50.008;10.596;2023-05-29T09:10:34;21.70;99.90
11047;DHT22;5576;50.008;10.596;2023-05-29T09:13:00;21.80;99.90
11047;DHT22;5576;50.008;10.596;2023-05-29T09:15:26;21.80;99.90
11047;DHT22;5576;50.008;10.596;2023-05-29T09:17:53;22.00;99.90
11047;DHT22;5576;50.008;10.596;2023-05-29T09:20:20;22.00;99.90
11047;DHT22;5576;50.008;10.596;2023-05-29T09:25:23;22.00;99.90
11047;DHT22;5576;50.008;10.596;2023-05-29T09:30:44;19.10;99.90
11047;DHT22;5576;50.008;10.596;2023-05-29T09:33:12;22.40;99.90
11047;DHT22;5576;50.008;10.596;2023-05-29T09:35:47;22.40;99.90
11047;DHT22;5576;50.008;10.596;2023-05-29T09:38:15;22.60;99.90
11047;DHT22;5576;50.008;10.596;2023-05-29T09:40:41;22.10;99.90
11047;DHT22;5576;50.008;10.596;2023-05-29T09:43:11;22.20;99.90
11047;DHT22;5576;50.008;10.596;2023-05-29T09:45:40;22.50;99.90
11047;DHT22;5576;50.008;10.596;2023-05-29T09:48:07;22.60;99.90
11047;DHT22;5576;50.008;10.596;2023-05-29T09:50:34;22.90;99.90
11047;DHT22;5576;50.008;10.596;2023-05-29T09:53:00;23.00;99.90
11047;DHT22;5576;50.008;10.596;2023-05-29T09:55:27;23.10;99.90
11047;DHT22;5576;50.008;10.596;2023-05-29T09:57:54;25.60;99.90
11047;DHT22;5576;50.008;10.596;2023-05-29T10:00:20;23.30;99.90
11047;DHT22;5576;50.008;10.596;2023-05-29T10:02:48;27.20;99.90
11047;DHT22;5576;50.008;10.596;2023-05-29T10:05:14;23.50;99.60
11047;DHT22;5576;50.008;10.596;2023-05-29T10:07:46;23.60;99.20
11047;DHT22;5576;50.008;10.596;2023-05-29T10:10:16;22.40;98.50
11047;DHT22;5576;50.008;10.596;2023-05-29T10:12:47;23.80;98.90
11047;DHT22;5576;50.008;10.596;2023-05-29T10:15:15;23.70;99.10
11047;DHT22;5576;50.008;10.596;2023-05-29T10:20:17;23.80;99.40
11047;DHT22;5576;50.008;10.596;2023-05-29T10:22:46;25.20;98.10
11047;DHT22;5576;50.008;10.596;2023-05-29T10:25:18;24.20;97.30
11047;DHT22;5576;50.008;10.596;2023-05-29T10:27:44;24.20;96.70
11047;DHT22;5576;50.008;10.596;2023-05-29T10:30:15;24.20;97.00
11047;DHT22;5576;50.008;10.596;2023-05-29T10:36:06;24.20;95.70
11047;DHT22;5576;50.008;10.596;2023-05-29T10:38:33;24.30;96.40
11047;DHT22;5576;50.008;10.596;2023-05-29T10:41:28;24.60;95.60
11047;DHT22;5576;50.008;10.596;2023-05-29T10:43:54;27.80;97.20
11047;DHT22;5576;50.008;10.596;2023-05-29T10:46:21;24.80;96.50
11047;DHT22;5576;50.008;10.596;2023-05-29T10:48:50;25.70;95.60
11047;DHT22;5576;50.008;10.596;2023-05-29T10:51:25;24.70;93.90
11047;DHT22;5576;50.008;10.596;2023-05-29T10:53:51;22.00;93.00
11047;DHT22;5576;50.008;10.596;2023-05-29T10:56:22;24.50;95.40
11047;DHT22;5576;50.008;10.596;2023-05-29T10:58:53;25.20;93.70
11047;DHT22;5576;50.008;10.596;2023-05-29T11:01:22;24.70;93.70
11047;DHT22;5576;50.008;10.596;2023-05-29T11:03:48;24.70;94.10
11047;DHT22;5576;50.008;10.596;2023-05-29T11:06:21;24.60;94.00
11047;DHT22;5576;50.008;10.596;2023-05-29T11:08:57;21.50;92.00
11047;DHT22;5576;50.008;10.596;2023-05-29T11:11:31;27.20;94.30
11047;DHT22;5576;50.008;10.596;2023-05-29T11:14:04;24.70;93.90
11047;DHT22;5576;50.008;10.596;2023-05-29T11:18:59;24.80;93.40
11047;DHT22;5576;50.008;10.596;2023-05-29T11:24:28;24.90;94.50
11047;DHT22;5576;50.008;10.596;2023-05-29T11:26:56;23.80;92.70
11047;DHT22;5576;50.008;10.596;2023-05-29T11:29:27;25.10;93.80
11047;DHT22;5576;50.008;10.596;2023-05-29T11:31:58;27.50;93.10
11047;DHT22;5576;50.008;10.596;2023-05-29T11:34:28;25.10;93.00
11047;DHT22;5576;50.008;10.596;2023-05-29T11:36:57;24.80;92.00
11047;DHT22;5576;50.008;10.596;2023-05-29T11:39:23;24.90;93.70
11047;DHT22;5576;50.008;10.596;2023-05-29T11:41:51;25.60;92.80
11047;DHT22;5576;50.008;10.596;2023-05-29T11:44:18;25.00;92.80
11047;DHT22;5576;50.008;10.596;2023-05-29T11:46:44;25.40;92.20
11047;DHT22;5576;50.008;10.596;2023-05-29T11:49:10;26.60;92.70
11047;DHT22;5576;50.008;10.596;2023-05-29T11:51:35;26.00;91.00
11047;DHT22;5576;50.008;10.596;2023-05-29T11:54:02;26.10;91.40
11047;DHT22;5576;50.008;10.596;2023-05-29T11:56:29;26.20;90.60
11047;DHT22;5576;50.008;10.596;2023-05-29T11:58:57;25.80;89.60
11047;DHT22;5576;50.008;10.596;2023-05-29T12:01:26;26.20;91.20
11047;DHT22;5576;50.008;10.596;2023-05-29T12:03:52;27.10;91.60
11047;DHT22;5576;50.008;10.596;2023-05-29T12:06:35;22.30;86.70
11047;DHT22;5576;50.008;10.596;2023-05-29T12:09:03;26.10;89.40
11047;DHT22;5576;50.008;10.596;2023-05-29T12:11:30;26.10;87.70
11047;DHT22;5576;50.008;10.596;2023-05-29T12:14:00;26.10;88.50
11047;DHT22;5576;50.008;10.596;2023-05-29T12:16:27;25.80;88.10
11047;DHT22;5576;50.008;10.596;2023-05-29T12:18:55;27.00;90.40
11047;DHT22;5576;50.008;10.596;2023-05-29T12:21:21;26.10;90.70
11047;DHT22;5576;50.008;10.596;2023-05-29T12:23:48;26.10;91.00
11047;DHT22;5576;50.008;10.596;2023-05-29T12:26:14;24.90;90.20
11047;DHT22;5576;50.008;10.596;2023-05-29T12:28:44;26.40;88.80
11047;DHT22;5576;50.008;10.596;2023-05-29T12:31:10;26.90;89.60
11047;DHT22;5576;50.008;10.596;2023-05-29T12:33:42;26.40;88.50
11047;DHT22;5576;50.008;10.596;2023-05-29T12:36:09;26.60;90.10
11047;DHT22;5576;50.008;10.596;2023-05-29T12:38:48;26.60;85.70
11047;DHT22;5576;50.008;10.596;2023-05-29T12:41:33;26.90;87.60
11047;DHT22;5576;50.008;10.596;2023-05-29T12:44:02;26.30;86.10
11047;DHT22;5576;50.008;10.596;2023-05-29T12:46:38;27.00;84.70
11047;DHT22;5576;50.008;10.596;2023-05-29T12:49:20;27.30;86.80
11047;DHT22;5576;50.008;10.596;2023-05-29T12:51:47;27.50;84.50
11047;DHT22;5576;50.008;10.596;2023-05-29T12:54:14;31.70;87.60
11047;DHT22;5576;50.008;10.596;2023-05-29T12:56:40;26.70;82.60
11047;DHT22;5576;50.008;10.596;2023-05-29T12:59:08;27.20;83.60
11047;DHT22;5576;50.008;10.596;2023-05-29T13:01:36;23.90;80.90
11047;DHT22;5576;50.008;10.596;2023-05-29T13:04:04;27.20;85.00
11047;DHT22;5576;50.008;10.596;2023-05-29T13:06:34;27.10;82.60
11047;DHT22;5576;50.008;10.596;2023-05-29T13:09:00;27.30;83.30
11047;DHT22;5576;50.008;10.596;2023-05-29T13:11:26;27.60;82.30
11047;DHT22;5576;50.008;10.596;2023-05-29T13:13:51;28.90;84.30
11047;DHT22;5576;50.008;10.596;2023-05-29T13:16:17;27.50;82.00
11047;DHT22;5576;50.008;10.596;2023-05-29T13:18:43;27.20;79.60
11047;DHT22;5576;50.008;10.596;2023-05-29T13:21:09;27.20;82.10
11047;DHT22;5576;50.008;10.596;2023-05-29T13:23:36;27.20;80.10
11047;DHT22;5576;50.008;10.596;2023-05-29T13:26:03;27.20;82.60
11047;DHT22;5576;50.008;10.596;2023-05-29T13:28:29;27.30;80.60
11047;DHT22;5576;50.008;10.596;2023-05-29T13:30:55;27.10;82.00
11047;DHT22;5576;50.008;10.596;2023-05-29T13:33:21;27.40;83.20
11047;DHT22;5576;50.008;10.596;2023-05-29T13:35:46;27.60;78.80
11047;DHT22;5576;50.008;10.596;2023-05-29T13:38:12;28.00;81.20
11047;DHT22;5576;50.008;10.596;2023-05-29T13:40:38;27.20;82.00
11047;DHT22;5576;50.008;10.596;2023-05-29T13:43:03;25.90;79.40
11047;DHT22;5576;50.008;10.596;2023-05-29T13:45:29;26.70;81.00
11047;DHT22;5576;50.008;10.596;2023-05-29T13:47:55;27.30;82.50
11047;DHT22;5576;50.008;10.596;2023-05-29T13:50:21;27.30;82.50
11047;DHT22;5576;50.008;10.596;2023-05-29T13:52:49;27.00;82.80
11047;DHT22;5576;50.008;10.596;2023-05-29T13:55:16;26.90;82.30
11047;DHT22;5576;50.008;10.596;2023-05-29T13:57:41;25.80;82.60
11047;DHT22;5576;50.008;10.596;2023-05-29T14:00:10;27.10;82.90
11047;DHT22;5576;50.008;10.596;2023-05-29T14:02:36;27.10;80.20
11047;DHT22;5576;50.008;10.596;2023-05-29T14:05:03;29.70;85.10
11047;DHT22;5576;50.008;10.596;2023-05-29T14:07:29;27.00;82.10
11047;DHT22;5576;50.008;10.596;2023-05-29T14:09:54;26.50;82.30
11047;DHT22;5576;50.008;10.596;2023-05-29T14:12:20;26.50;82.80
11047;DHT22;5576;50.008;10.596;2023-05-29T14:14:46;26.60;82.90
11047;DHT22;5576;50.008;10.596;2023-05-29T14:17:13;26.60;80.60
11047;DHT22;5576;50.008;10.596;2023-05-29T14:19:39;26.40;84.20
11047;DHT22;5576;50.008;10.596;2023-05-29T14:22:05;26.90;85.40
11047;DHT22;5576;50.008;10.596;2023-05-29T14:24:31;27.80;86.60
11047;DHT22;5576;50.008;10.596;2023-05-29T14:26:57;27.50;84.80
11047;DHT22;5576;50.008;10.596;2023-05-29T14:29:23;27.20;82.20
11047;DHT22;5576;50.008;10.596;2023-05-29T14:31:48;27.20;84.30
11047;DHT22;5576;50.008;10.596;2023-05-29T14:34:14;27.20;84.30
11047;DHT22;5576;50.008;10.596;2023-05-29T14:36:40;27.20;82.60
11047;DHT22;5576;50.008;10.596;2023-05-29T14:39:06;27.20;83.60
11047;DHT22;5576;50.008;10.596;2023-05-29T14:41:32;27.20;83.10
11047;DHT22;5576;50.008;10.596;2023-05-29T14:44:00;27.10;83.00
11047;DHT22;5576;50.008;10.596;2023-05-29T14:46:26;27.20;81.70
11047;DHT22;5576;50.008;10.596;2023-05-29T14:48:54;23.80;79.40
11047;DHT22;5576;50.008;10.596;2023-05-29T14:51:20;25.40;80.30
11047;DHT22;5576;50.008;10.596;2023-05-29T14:53:46;27.60;82.60
11047;DHT22;5576;50.008;10.596;2023-05-29T14:56:12;27.60;80.00
11047;DHT22;5576;50.008;10.596;2023-05-29T14:58:38;28.30;81.60
11047;DHT22;5576;50.008;10.596;2023-05-29T15:01:04;27.10;81.20
11047;DHT22;5576;50.008;10.596;2023-05-29T15:03:30;26.90;84.50
11047;DHT22;5576;50.008;10.596;2023-05-29T15:05:55;27.90;83.90
11047;DHT22;5576;50.008;10.596;2023-05-29T15:08:22;27.70;85.30
11047;DHT22;5576;50.008;10.596;2023-05-29T15:10:48;29.20;85.70
11047;DHT22;5576;50.008;10.596;2023-05-29T15:13:14;26.50;80.50
11047;DHT22;5576;50.008;10.596;2023-05-29T15:15:40;26.50;83.30
11047;DHT22;5576;50.008;10.596;2023-05-29T15:18:06;30.00;87.60
11047;DHT22;5576;50.008;10.596;2023-05-29T15:20:31;26.80;81.60
11047;DHT22;5576;50.008;10.596;2023-05-29T15:22:57;26.70;84.10
11047;DHT22;5576;50.008;10.596;2023-05-29T15:25:23;26.80;84.50
11047;DHT22;5576;50.008;10.596;2023-05-29T15:27:49;26.60;84.70
11047;DHT22;5576;50.008;10.596;2023-05-29T15:30:17;26.60;84.70
11047;DHT22;5576;50.008;10.596;2023-05-29T15:32:44;26.60;84.60
11047;DHT22;5576;50.008;10.596;2023-05-29T15:35:12;26.50;86.10
11047;DHT22;5576;50.008;10.596;2023-05-29T15:37:40;26.80;87.00
11047;DHT22;5576;50.008;10.596;2023-05-29T15:40:06;27.00;85.70
11047;DHT22;5576;50.008;10.596;2023-05-29T15:42:32;27.10;86.40
11047;DHT22;5576;50.008;10.596;2023-05-29T15:44:58;27.20;84.60
11047;DHT22;5576;50.008;10.596;2023-05-29T15:47:24;27.30;86.60
11047;DHT22;5576;50.008;10.596;2023-05-29T15:49:50;30.40;88.50
11047;DHT22;5576;50.008;10.596;2023-05-29T15:52:16;27.70;82.30
11047;DHT22;5576;50.008;10.596;2023-05-29T15:54:42;26.60;82.40
11047;DHT22;5576;50.008;10.596;2023-05-29T15:57:08;27.50;82.00
11047;DHT22;5576;50.008;10.596;2023-05-29T15:59:34;27.30;83.40
11047;DHT22;5576;50.008;10.596;2023-05-29T16:02:00;27.30;82.40